Compton, Arkansas
Current Conditions -  °F | °C
As of 10:53 AM on Wednesday 26 Nov 2014 (Local Time) from KHRO Reporting Station
Broken Clouds Broken Clouds  
Wind Chill: 38°   Ceiling: 9500
Heat Index: 43°   Visibility: 10mi
Dew Point: 34°   Wind: 8mph
Humidity: 71%   Direction: 280°W
Pressure: 30.01"   Gusts: NA
Location:  36.1°N, 93.3°W
Report Text: KHRO 261653Z AUTO 28007KT 10SM FEW075 BKN095 06/01 A3001 RMK AO2 RAE21 SLP167 P0000 T00610011
Loading
Personal Weather Stations






























Interactive Weather Map New forecast layout! Learn more

10-Day Weather Forecast

Advertisements
Track Severe Weather on mobile